Time;durP1;ratioP1;P1;durP2;ratioP2;P2;SDS_P1;SDS_P2;PMS_P1;PMS_P2;Temp;Humidity;BMP_temperature;BMP_pressure;BME280_temperature;BME280_humidity;BME280_pressure;Samples;Min_cycle;Max_cycle;Signal;HPM_P1;HPM_P2
2023/09/09 00:00:09;;;;;;;1.48;1.42;;;;;;;20.21;75.88;96944.09;29395;223;64008;-67
2023/09/09 00:00:43;;;;;;;0.30;0.30;;;;;;;20.20;75.88;96945.25;29396;249;63008;-67
2023/09/09 00:01:14;;;;;;;0.32;0.32;;;;;;;20.19;76.10;96944.47;29396;281;63005;-67
2023/09/09 00:01:46;;;;;;;0.30;0.30;;;;;;;20.18;76.16;96940.09;29395;334;64014;-68
2023/09/09 00:02:19;;;;;;;0.30;0.30;;;;;;;20.18;76.14;96942.06;29396;308;63005;-69
2023/09/09 00:02:50;;;;;;;2.80;2.70;;;;;;;20.17;75.98;96945.97;29396;210;63009;-51
2023/09/09 00:03:22;;;;;;;0.30;0.30;;;;;;;20.16;75.97;96944.34;29396;245;63005;-68
2023/09/09 00:03:53;;;;;;;0.30;0.30;;;;;;;20.15;76.31;96949.06;29396;263;63009;-70
2023/09/09 00:04:24;;;;;;;0.30;0.30;;;;;;;20.14;76.51;96944.72;29396;211;63005;-51
2023/09/09 00:04:56;;;;;;;0.30;0.30;;;;;;;20.13;76.40;96945.88;29396;241;63009;-69
2023/09/09 00:05:30;;;;;;;0.30;0.30;;;;;;;20.12;76.54;96937.94;29396;220;63004;-67
2023/09/09 00:06:11;;;;;;;0.40;0.40;;;;;;;20.11;76.49;96939.09;29396;205;63009;-68
2023/09/09 00:18:58;;;;;;;0.30;0.30;;;;;;;20.03;77.61;96946.41;29395;263;63005;-51
2023/09/09 00:19:33;;;;;;;0.30;0.30;;;;;;;20.03;77.70;96940.91;29394;202;64009;-51
2023/09/09 00:20:08;;;;;;;0.40;0.40;;;;;;;20.01;77.45;96946.75;29395;298;63004;-51
2023/09/09 00:20:40;;;;;;;0.40;0.40;;;;;;;20.00;77.36;96945.16;29395;230;63008;-51
2023/09/09 00:21:14;;;;;;;0.40;0.40;;;;;;;20.00;77.49;96945.16;29395;253;63004;-51
2023/09/09 00:21:46;;;;;;;0.40;0.40;;;;;;;19.99;77.28;96940.78;29395;197;63009;-51
2023/09/09 00:22:17;;;;;;;0.30;0.30;;;;;;;19.98;77.29;96943.91;29395;197;63005;-51
2023/09/09 00:22:48;;;;;;;0.30;0.30;;;;;;;19.98;77.10;96946.66;29395;202;63009;-52
2023/09/09 00:23:20;;;;;;;0.30;0.30;;;;;;;19.96;77.32;96944.25;29394;264;64009;-51
2023/09/09 00:23:51;;;;;;;0.30;0.30;;;;;;;19.97;77.70;96942.31;29394;209;64013;-51
2023/09/09 00:24:22;;;;;;;0.30;0.30;;;;;;;19.98;77.25;96952.97;29395;287;63000;-51
2023/09/09 00:24:53;;;;;;;0.30;0.30;;;;;;;19.97;77.03;96945.84;29395;214;63009;-51
2023/09/09 00:25:25;;;;;;;0.40;0.40;;;;;;;19.97;76.94;96951.38;29394;198;64009;-52
2023/09/09 00:25:56;;;;;;;0.30;0.30;;;;;;;19.96;77.07;96947.00;29395;266;63009;-51
2023/09/09 00:26:28;;;;;;;0.30;0.30;;;;;;;19.95;77.22;96947.34;29395;247;63004;-50
2023/09/09 00:27:00;;;;;;;0.30;0.30;;;;;;;19.93;77.25;96950.47;29395;236;63009;-69
2023/09/09 00:27:32;;;;;;;0.40;0.40;;;;;;;19.92;77.22;96946.09;29394;222;64009;-50
2023/09/09 00:28:05;;;;;;;0.40;0.40;;;;;;;19.92;77.28;96943.34;29394;237;64013;-51
2023/09/09 00:28:36;;;;;;;0.30;0.30;;;;;;;19.92;77.45;96946.09;29395;203;63004;-52
2023/09/09 00:29:08;;;;;;;0.40;0.40;;;;;;;19.92;77.16;96946.09;29395;217;63009;-51
2023/09/09 00:29:39;;;;;;;0.30;0.30;;;;;;;19.92;77.09;96951.63;29395;254;63010;-67
2023/09/09 00:30:11;;;;;;;0.30;0.30;;;;;;;19.91;77.32;96949.22;29395;204;63009;-51
2023/09/09 00:30:43;;;;;;;0.30;0.30;;;;;;;19.90;77.55;96948.41;29395;206;63005;-51
2023/09/09 00:31:14;;;;;;;0.30;0.30;;;;;;;19.91;77.32;96951.97;29394;243;64013;-51
2023/09/09 00:31:45;;;;;;;0.30;0.30;;;;;;;19.88;77.50;96945.19;29395;198;63005;-67
2023/09/09 00:32:16;;;;;;;0.52;0.52;;;;;;;19.89;77.94;96948.75;29395;198;63009;-51
2023/09/09 00:32:47;;;;;;;0.30;0.30;;;;;;;19.89;77.66;96949.56;29395;215;63004;-51
2023/09/09 00:33:19;;;;;;;0.30;0.30;;;;;;;19.89;77.48;96946.00;29395;202;63009;-50
2023/09/09 00:33:52;;;;;;;0.30;0.30;;;;;;;19.88;77.49;96945.19;29395;326;63004;-50
2023/09/09 00:34:24;;;;;;;0.40;0.40;;;;;;;19.90;77.72;96945.66;29395;226;63009;-51
2023/09/09 00:34:57;;;;;;;0.30;0.30;;;;;;;19.88;77.59;96950.72;29394;199;64008;-51
2023/09/09 00:35:29;;;;;;;0.30;0.30;;;;;;;19.87;77.72;96946.34;29395;223;63008;-52
2023/09/09 00:36:02;;;;;;;0.30;0.30;;;;;;;19.86;77.71;96953.00;29395;267;63009;-51
2023/09/09 00:36:33;;;;;;;0.30;0.30;;;;;;;19.86;77.92;96950.25;29394;215;64014;-51
2023/09/09 00:37:06;;;;;;;0.30;0.30;;;;;;;19.85;77.82;96947.84;29395;252;63005;-52
2023/09/09 00:37:38;;;;;;;0.30;0.30;;;;;;;19.84;77.87;96949.81;29395;205;63009;-67
2023/09/09 00:38:12;;;;;;;0.30;0.30;;;;;;;19.84;77.75;96944.31;29395;205;63005;-51
2023/09/09 00:38:43;;;;;;;0.30;0.30;;;;;;;19.84;77.88;96949.81;29395;220;63009;-51
2023/09/09 00:39:15;;;;;;;2.55;1.27;;;;;;;19.85;77.96;96951.41;29395;223;63005;-50
2023/09/09 00:39:46;;;;;;;0.30;0.30;;;;;;;19.84;77.93;96947.06;29395;199;63009;-51
2023/09/09 00:40:19;;;;;;;0.40;0.40;;;;;;;19.83;78.01;96948.22;29395;228;63004;-52
2023/09/09 00:41:10;;;;;;;0.40;0.40;;;;;;;19.81;78.15;96938.69;29395;249;63009;-51
2023/09/09 00:41:41;;;;;;;0.40;0.40;;;;;;;19.81;78.13;96950.50;29416;219;64013;-52
2023/09/09 00:42:12;;;;;;;0.40;0.40;;;;;;;19.80;78.04;96948.91;29395;246;63004;-53
2023/09/09 00:42:43;;;;;;;0.37;0.37;;;;;;;19.78;78.18;96942.94;29395;200;63008;-51
2023/09/09 00:43:15;;;;;;;0.40;0.40;;;;;;;19.77;78.02;96944.09;29394;202;64005;-51
2023/09/09 00:43:47;;;;;;;0.40;0.40;;;;;;;19.77;78.40;96944.09;29395;250;63005;-53
2023/09/09 00:44:18;;;;;;;0.30;0.30;;;;;;;19.75;78.35;96940.94;29395;198;63005;-51
2023/09/09 00:44:49;;;;;;;0.40;0.40;;;;;;;19.74;78.43;96945.63;29395;226;63009;-51
2023/09/09 00:45:20;;;;;;;0.40;0.40;;;;;;;19.74;78.40;96944.81;29395;254;63005;-52
2023/09/09 00:45:52;;;;;;;0.40;0.40;;;;;;;19.72;78.89;96944.37;29395;197;63009;-51
2023/09/09 00:46:24;;;;;;;0.30;0.30;;;;;;;19.71;78.69;96946.31;29395;254;63005;-51
2023/09/09 00:46:57;;;;;;;0.40;0.40;;;;;;;19.71;78.67;96951.03;29394;261;64013;-51
2023/09/09 00:47:29;;;;;;;0.30;0.30;;;;;;;19.68;78.89;96946.22;29394;215;64004;-66
2023/09/09 00:48:01;;;;;;;0.30;0.30;;;;;;;19.67;78.99;96939.91;29395;204;63015;-51
2023/09/09 00:48:32;;;;;;;0.40;0.40;;;;;;;19.67;78.96;96944.63;29395;202;63004;-51
2023/09/09 00:49:05;;;;;;;0.40;0.40;;;;;;;19.65;78.90;96941.41;29395;202;63028;-68
2023/09/09 00:49:36;;;;;;;0.30;0.30;;;;;;;19.64;78.88;96937.06;29395;225;63004;-51
2023/09/09 00:50:11;;;;;;;0.40;0.40;;;;;;;19.62;79.18;96945.66;29395;279;63008;-51
2023/09/09 00:50:43;;;;;;;0.30;0.30;;;;;;;19.62;79.01;96944.87;29394;197;64004;-51
2023/09/09 00:51:14;;;;;;;0.30;0.30;;;;;;;19.60;79.36;96939.72;29395;203;63009;-51
2023/09/09 00:51:46;;;;;;;0.30;0.30;;;;;;;19.60;79.26;96944.41;29395;214;63005;-52
2023/09/09 00:52:17;;;;;;;0.30;0.30;;;;;;;19.60;79.21;96945.22;29394;291;64014;-51
2023/09/09 00:52:49;;;;;;;9.68;9.02;;;;;;;19.60;79.22;96933.41;29391;211;65005;-51
2023/09/09 00:53:21;;;;;;;0.30;0.30;;;;;;;19.58;79.46;96942.00;29395;202;63005;-51
2023/09/09 00:53:52;;;;;;;0.30;0.30;;;;;;;19.61;79.36;96940.50;29395;204;63005;-51
2023/09/09 00:54:23;;;;;;;0.30;0.30;;;;;;;19.61;79.19;96941.31;29395;209;63009;-52
2023/09/09 00:54:55;;;;;;;0.40;0.40;;;;;;;19.61;79.04;96946.00;29395;202;63000;-51
2023/09/09 00:55:27;;;;;;;0.30;0.30;;;;;;;19.60;79.22;96939.72;29395;270;63009;-51
2023/09/09 00:56:01;;;;;;;0.30;0.30;;;;;;;19.60;78.90;96944.41;29394;212;64009;-66
2023/09/09 00:56:34;;;;;;;0.40;0.40;;;;;;;19.60;78.98;96936.16;29395;245;63009;-51
2023/09/09 00:57:05;;;;;;;0.40;0.40;;;;;;;19.61;79.04;96937.75;29395;222;63004;-52
2023/09/09 00:57:37;;;;;;;0.40;0.40;;;;;;;19.60;79.41;96936.97;29395;310;63008;-52
2023/09/09 00:58:08;;;;;;;0.37;0.37;;;;;;;19.62;79.30;96937.41;29395;215;63004;-51
2023/09/09 00:58:40;;;;;;;0.47;0.47;;;;;;;19.64;79.13;96939.81;29395;210;63009;-51
2023/09/09 00:59:12;;;;;;;0.32;0.32;;;;;;;19.64;79.10;96939.81;29395;209;63005;-51
2023/09/09 00:59:43;;;;;;;0.40;0.40;;;;;;;19.63;79.22;96933.50;29394;247;64014;-51
2023/09/09 01:00:17;;;;;;;0.30;0.30;;;;;;;19.63;78.97;96932.72;29395;211;63005;-51
2023/09/09 01:00:48;;;;;;;0.30;0.30;;;;;;;19.62;79.29;96928.34;29395;223;63009;-51
2023/09/09 01:01:19;;;;;;;0.37;0.37;;;;;;;19.61;79.41;96933.06;29395;283;63005;-51
2023/09/09 01:01:50;;;;;;;0.40;0.40;;;;;;;19.61;79.33;96935.00;29395;219;63009;-51
2023/09/09 01:02:22;;;;;;;0.30;0.30;;;;;;;19.60;79.48;96938.91;29395;217;63005;-52
2023/09/09 01:02:53;;;;;;;0.30;0.30;;;;;;;19.59;79.21;96932.59;29395;204;63009;-51
2023/09/09 01:03:25;;;;;;;0.30;0.30;;;;;;;19.61;79.50;96946.00;29395;220;63004;-67
2023/09/09 01:03:56;;;;;;;0.40;0.40;;;;;;;19.59;79.40;96932.59;29395;196;63009;-51
2023/09/09 01:04:28;;;;;;;0.32;0.32;;;;;;;19.59;79.24;96937.31;29394;238;64009;-51
2023/09/09 01:04:59;;;;;;;0.40;0.40;;;;;;;19.58;79.58;96938.47;29395;263;63009;-50
2023/09/09 01:05:32;;;;;;;0.30;0.30;;;;;;;19.57;79.56;96931.34;29394;219;64008;-67
2023/09/09 01:06:04;;;;;;;0.30;0.30;;;;;;;19.56;79.40;96938.00;29395;211;63009;-50
2023/09/09 01:06:38;;;;;;;0.30;0.30;;;;;;;19.55;79.87;96931.69;29394;213;64009;-52
2023/09/09 01:07:09;;;;;;;0.40;0.40;;;;;;;19.54;79.68;96937.56;29394;236;64014;-51
2023/09/09 01:07:48;;;;;;;0.35;0.35;;;;;;;19.55;79.78;96936.41;29394;222;64009;-52
2023/09/09 01:08:26;;;;;;;0.30;0.30;;;;;;;19.54;79.90;96937.56;29395;197;63009;-51
2023/09/09 01:09:04;;;;;;;0.30;0.30;;;;;;;19.54;79.80;96940.31;29395;225;63005;-52
2023/09/09 01:09:36;;;;;;;0.35;0.35;;;;;;;19.54;80.15;96940.31;29395;221;63009;-51
2023/09/09 01:10:08;;;;;;;0.40;0.40;;;;;;;19.54;79.88;96941.09;29395;286;63004;-51
2023/09/09 01:10:39;;;;;;;0.50;0.50;;;;;;;19.54;79.88;96934.81;29394;199;64013;-51
2023/09/09 01:11:10;;;;;;;0.30;0.30;;;;;;;19.53;79.90;96938.69;29395;205;63009;-51
2023/09/09 01:11:42;;;;;;;0.40;0.40;;;;;;;19.54;80.07;96940.31;29395;222;63009;-51
2023/09/09 01:12:13;;;;;;;0.40;0.40;;;;;;;19.54;79.68;96941.09;29395;208;63004;-50
2023/09/09 01:12:45;;;;;;;0.40;0.40;;;;;;;19.54;79.75;96941.09;29395;199;63008;-53
2023/09/09 01:13:16;;;;;;;0.40;0.40;;;;;;;19.54;79.84;96940.31;29394;302;64008;-50
2023/09/09 01:13:48;;;;;;;0.40;0.40;;;;;;;19.52;80.07;96937.09;29395;256;63009;-51
2023/09/09 01:14:19;;;;;;;0.35;0.35;;;;;;;19.52;79.79;96937.09;29395;233;63005;-66
2023/09/09 01:14:51;;;;;;;0.40;0.40;;;;;;;19.51;80.03;96941.00;29395;237;63009;-51
2023/09/09 01:15:22;;;;;;;0.40;0.40;;;;;;;19.50;80.16;96937.41;29395;219;63005;-51
2023/09/09 01:15:54;;;;;;;0.40;0.40;;;;;;;19.51;80.53;96941.00;29395;203;63025;-51
2023/09/09 01:16:26;;;;;;;0.37;0.37;;;;;;;19.51;80.33;96935.50;29395;297;63005;-51
2023/09/09 01:16:59;;;;;;;0.32;0.32;;;;;;;19.50;80.29;96942.13;29395;210;63009;-51
2023/09/09 01:17:34;;;;;;;0.40;0.40;;;;;;;19.49;80.48;96941.31;29395;308;63005;-51
2023/09/09 01:18:06;;;;;;;0.40;0.40;;;;;;;19.50;80.44;96939.38;29395;251;63009;-67
2023/09/09 01:18:37;;;;;;;0.40;0.40;;;;;;;19.49;80.60;96937.75;29394;264;64009;-50
2023/09/09 01:19:13;;;;;;;0.30;0.30;;;;;;;19.48;80.50;96942.47;29395;202;63009;-50
2023/09/09 01:19:44;;;;;;;0.30;0.30;;;;;;;19.48;80.27;96941.66;29395;256;63004;-51
2023/09/09 01:20:20;;;;;;;0.40;0.40;;;;;;;19.48;80.58;96941.66;29395;211;63008;-51
2023/09/09 01:20:59;;;;;;;0.40;0.40;;;;;;;19.49;80.36;96943.25;29395;274;63004;-52
2023/09/09 01:21:33;;;;;;;0.40;0.40;;;;;;;19.48;80.38;96941.66;29395;281;63009;-52
2023/09/09 01:22:11;;;;;;;0.30;0.30;;;;;;;19.48;80.46;96936.16;29395;213;63005;-51
2023/09/09 01:22:50;;;;;;;0.32;0.32;;;;;;;19.46;80.52;96941.22;29395;238;63009;-51
2023/09/09 01:23:21;;;;;;;0.40;0.40;;;;;;;19.46;80.77;96943.97;29394;229;64009;-68
2023/09/09 01:23:52;;;;;;;0.40;0.40;;;;;;;19.45;80.75;96945.13;29395;258;63009;-50
2023/09/09 01:24:24;;;;;;;0.40;0.40;;;;;;;19.43;80.38;96940.75;29395;208;63017;-51
2023/09/09 01:24:56;;;;;;;0.40;0.40;;;;;;;19.42;80.82;96938.34;29395;218;63009;-51
2023/09/09 01:25:28;;;;;;;0.40;0.40;;;;;;;19.41;80.79;96940.31;29395;238;63004;-51
2023/09/09 01:25:59;;;;;;;0.40;0.40;;;;;;;19.41;80.64;96937.56;29394;198;64013;-51
2023/09/09 01:26:30;;;;;;;0.40;0.40;;;;;;;19.40;80.82;96941.44;29395;292;63004;-51
2023/09/09 01:27:02;;;;;;;0.30;0.30;;;;;;;19.40;80.91;96946.19;29395;241;63009;-51
2023/09/09 01:27:34;;;;;;;0.40;0.40;;;;;;;19.39;81.01;96944.59;29395;292;63004;-52
2023/09/09 01:28:05;;;;;;;0.30;0.30;;;;;;;19.37;81.10;96942.19;29395;206;63008;-69
2023/09/09 01:28:41;;;;;;;0.40;0.40;;;;;;;19.36;81.17;96945.28;29395;207;63005;-51
2023/09/09 01:29:14;;;;;;;0.40;0.40;;;;;;;19.35;81.21;96944.47;29395;233;63009;-51
2023/09/09 01:29:45;;;;;;;0.40;0.40;;;;;;;19.35;81.38;96949.97;29394;197;63999;-52
2023/09/09 01:30:16;;;;;;;0.40;0.40;;;;;;;19.34;81.54;96937.37;29395;200;63009;-51
2023/09/09 01:30:49;;;;;;;0.40;0.40;;;;;;;19.34;81.25;96948.38;29395;210;63005;-51
2023/09/09 01:31:20;;;;;;;0.40;0.40;;;;;;;19.33;81.57;96943.22;29395;232;63009;-52
2023/09/09 01:31:52;;;;;;;0.30;0.30;;;;;;;19.33;81.66;96940.47;29395;218;63005;-51
2023/09/09 01:32:23;;;;;;;0.40;0.40;;;;;;;19.32;81.68;96945.16;29395;265;63009;-52
2023/09/09 01:32:54;;;;;;;0.30;0.30;;;;;;;19.34;81.63;96953.06;29395;214;63004;-51
2023/09/09 01:33:25;;;;;;;0.30;0.30;;;;;;;19.31;81.63;96943.56;29394;216;64013;-51
2023/09/09 01:33:57;;;;;;;0.37;0.37;;;;;;;19.30;81.18;96941.97;29395;213;63004;-51
2023/09/09 01:34:29;;;;;;;0.30;0.30;;;;;;;19.29;81.73;96940.34;29395;208;63009;-67
2023/09/09 01:35:04;;;;;;;0.30;0.30;;;;;;;19.29;81.44;96945.84;29395;203;63004;-51
2023/09/09 01:35:35;;;;;;;0.30;0.30;;;;;;;19.29;81.73;96940.34;29395;202;63008;-51
2023/09/09 01:36:08;;;;;;;0.37;0.37;;;;;;;19.29;81.88;96939.56;29395;197;63005;-51
2023/09/09 01:36:39;;;;;;;0.30;0.30;;;;;;;19.28;82.02;96937.94;29395;206;63026;-51
2023/09/09 01:37:12;;;;;;;0.40;0.40;;;;;;;19.27;81.72;96948.16;29394;238;64009;-68
2023/09/09 01:37:44;;;;;;;0.40;0.40;;;;;;;19.27;82.15;96941.84;29395;246;63009;-51
2023/09/09 01:38:15;;;;;;;0.37;0.37;;;;;;;19.26;81.96;96938.31;29395;264;63005;-52
2023/09/09 01:38:46;;;;;;;0.40;0.40;;;;;;;19.26;81.84;96948.50;29395;200;63009;-51
2023/09/09 01:39:18;;;;;;;0.40;0.40;;;;;;;19.25;82.17;96944.16;29394;217;64009;-51
2023/09/09 01:39:49;;;;;;;0.40;0.40;;;;;;;19.24;81.83;96948.03;29395;205;63009;-51
2023/09/09 01:40:22;;;;;;;0.40;0.40;;;;;;;19.23;81.82;96949.19;29395;197;63004;-51
2023/09/09 01:40:54;;;;;;;0.40;0.40;;;;;;;19.21;82.15;96943.25;29395;264;63009;-51
2023/09/09 01:41:25;;;;;;;0.40;0.40;;;;;;;19.19;82.04;96951.84;29395;202;63004;-51
2023/09/09 01:41:56;;;;;;;0.40;0.40;;;;;;;19.19;82.32;96946.34;29395;224;63009;-51
2023/09/09 01:42:27;;;;;;;0.40;0.40;;;;;;;19.18;82.25;96949.44;29395;224;63004;-51
2023/09/09 01:43:00;;;;;;;0.40;0.40;;;;;;;19.17;82.43;96947.81;29395;233;63008;-51
2023/09/09 01:43:31;;;;;;;0.40;0.40;;;;;;;19.15;82.30;96953.66;29395;298;63004;-51
2023/09/09 01:44:04;;;;;;;0.40;0.40;;;;;;;19.14;82.43;96952.06;29394;213;64014;-52
2023/09/09 01:44:36;;;;;;;0.30;0.30;;;;;;;19.14;82.57;96949.31;29395;219;63005;-51
2023/09/09 01:45:08;;;;;;;0.30;0.30;;;;;;;19.12;82.72;96948.88;29395;213;63009;-52
2023/09/09 01:45:39;;;;;;;0.35;0.35;;;;;;;19.11;82.63;96952.75;29395;222;63005;-51
2023/09/09 01:46:10;;;;;;;0.40;0.40;;;;;;;19.09;82.92;96955.06;29395;216;63024;-51
2023/09/09 01:46:41;;;;;;;0.40;0.40;;;;;;;19.09;82.85;96957.81;29395;225;63005;-51
2023/09/09 01:47:16;;;;;;;0.40;0.40;;;;;;;19.07;82.77;96957.34;29395;270;63009;-51
2023/09/09 01:47:47;;;;;;;0.30;0.30;;;;;;;19.07;82.81;96949.09;29395;222;63004;-52
2023/09/09 01:48:18;;;;;;;0.30;0.30;;;;;;;19.05;83.18;96957.72;29395;267;63009;-66
2023/09/09 01:48:50;;;;;;;0.40;0.40;;;;;;;19.05;83.21;96954.97;29395;218;63004;-51
2023/09/09 01:49:21;;;;;;;0.40;0.40;;;;;;;19.04;83.37;96955.31;29394;245;64013;-51
2023/09/09 01:49:52;;;;;;;0.40;0.40;;;;;;;19.02;83.22;96958.41;29395;218;63004;-51
2023/09/09 01:50:23;;;;;;;0.40;0.40;;;;;;;19.02;83.60;96952.09;29394;213;64009;-51
2023/09/09 01:50:55;;;;;;;0.40;0.40;;;;;;;19.00;83.49;96954.41;29395;219;63005;-51
2023/09/09 01:51:28;;;;;;;0.30;0.30;;;;;;;18.98;83.82;96946.50;29395;263;63009;-52
2023/09/09 01:51:59;;;;;;;0.30;0.30;;;;;;;18.98;83.84;96956.69;29395;220;63010;-52
2023/09/09 01:52:32;;;;;;;0.40;0.40;;;;;;;18.94;85.03;96951.09;29395;213;63009;-67
2023/09/09 01:53:07;;;;;;;0.40;0.40;;;;;;;18.91;84.60;96949.03;29395;252;63005;-67
2023/09/09 01:53:39;;;;;;;0.40;0.40;;;;;;;18.91;84.43;96950.97;29395;293;63009;-51
2023/09/09 01:54:10;;;;;;;0.30;0.30;;;;;;;18.90;84.33;96954.88;29395;257;63000;-68
2023/09/09 01:54:42;;;;;;;0.40;0.40;;;;;;;18.89;84.62;96953.25;29394;204;64013;-51
2023/09/09 01:55:14;;;;;;;0.32;0.32;;;;;;;18.88;85.32;96946.16;29395;227;63004;-51
2023/09/09 01:55:47;;;;;;;0.40;0.40;;;;;;;18.86;85.82;96948.44;29395;197;63009;-67
2023/09/09 01:56:21;;;;;;;0.40;0.40;;;;;;;18.83;85.35;96949.12;29395;226;63004;-68
2023/09/09 01:56:53;;;;;;;0.32;0.32;;;;;;;18.83;85.63;96949.12;29395;243;63009;-66
2023/09/09 01:57:26;;;;;;;0.40;0.40;;;;;;;18.82;86.37;96958.53;29395;231;63004;-51
2023/09/09 01:57:57;;;;;;;0.40;0.40;;;;;;;18.80;85.95;96949.81;29395;264;63009;-52
2023/09/09 01:58:29;;;;;;;0.40;0.40;;;;;;;18.78;86.22;96952.91;29395;223;63001;-51
2023/09/09 01:59:00;;;;;;;0.40;0.40;;;;;;;18.78;85.89;96949.34;29395;222;63009;-51
2023/09/09 01:59:31;;;;;;;0.37;0.37;;;;;;;18.77;85.38;96950.50;29395;222;63005;-52
2023/09/09 02:00:09;;;;;;;0.95;0.95;;;;;;;18.78;85.47;96941.12;29394;223;64013;-51
2023/09/09 02:00:41;;;;;;;0.30;0.30;;;;;;;18.78;85.95;96952.09;29395;202;63005;-52
2023/09/09 02:01:31;;;;;;;0.40;0.40;;;;;;;18.74;86.08;96952.78;29395;203;63009;-68
2023/09/09 02:02:17;;;;;;;0.40;0.40;;;;;;;18.73;85.92;96944.87;29439;204;63009;-51
2023/09/09 02:03:12;;;;;;;0.40;0.40;;;;;;;18.71;85.76;96947.97;29395;275;63009;-66
2023/09/09 02:03:54;;;;;;;0.40;0.40;;;;;;;18.71;86.05;96949.97;29395;261;63004;-67
2023/09/09 02:04:29;;;;;;;0.40;0.40;;;;;;;18.70;86.29;96943.66;29395;243;63004;-67
2023/09/09 02:05:19;;;;;;;;;;;;;;;;;;;;;
2023/09/09 02:05:57;;;;;;;0.40;0.40;;;;;;;18.66;86.44;96950.19;29394;346;64014;-68
2023/09/09 02:06:37;;;;;;;0.40;0.40;;;;;;;18.65;86.32;96952.13;29395;286;63005;-67
2023/09/09 02:07:11;;;;;;;0.40;0.40;;;;;;;18.63;86.14;96945.37;29417;203;63016;-69
2023/09/09 02:07:44;;;;;;;0.40;0.40;;;;;;;18.61;86.41;96948.47;29395;265;63005;-67
2023/09/09 02:08:19;;;;;;;0.40;0.40;;;;;;;18.62;86.40;96944.56;29395;299;63009;-68
2023/09/09 02:08:52;;;;;;;0.40;0.40;;;;;;;18.61;86.18;96953.97;29395;303;63005;-68
2023/09/09 02:09:26;;;;;;;0.40;0.40;;;;;;;18.62;86.56;96954.75;29395;269;63009;-66
2023/09/09 02:09:58;;;;;;;0.40;0.40;;;;;;;18.62;86.55;96950.06;29395;203;63004;-67
2023/09/09 02:10:30;;;;;;;0.40;0.40;;;;;;;18.61;86.93;96948.47;29395;335;63009;-68
2023/09/09 02:11:02;;;;;;;0.40;0.40;;;;;;;18.62;86.90;96950.06;29394;287;64009;-67
2023/09/09 02:11:39;;;;;;;0.40;0.40;;;;;;;18.62;86.75;96943.75;29395;248;63009;-69
2023/09/09 02:12:28;;;;;;;0.40;0.40;;;;;;;18.62;86.70;96950.06;29395;263;63004;-68
2023/09/09 02:12:59;;;;;;;0.40;0.40;;;;;;;18.63;86.81;96948.91;29394;294;64024;-69
2023/09/09 02:13:31;;;;;;;0.40;0.40;;;;;;;18.61;86.65;96937.47;29395;264;63001;-67
2023/09/09 02:14:03;;;;;;;0.40;0.40;;;;;;;18.64;86.79;96942.28;29395;274;63009;-69
2023/09/09 02:14:37;;;;;;;0.40;0.40;;;;;;;18.65;86.43;96943.09;29395;236;63005;-68
2023/09/09 02:15:11;;;;;;;0.40;0.40;;;;;;;18.65;86.95;96943.09;29395;212;63009;-67
2023/09/09 02:15:45;;;;;;;0.40;0.40;;;;;;;18.65;86.66;96954.88;29395;241;63000;-68
2023/09/09 02:16:17;;;;;;;0.40;0.40;;;;;;;18.64;86.48;96947.78;29394;202;64013;-67
2023/09/09 02:16:50;;;;;;;0.40;0.40;;;;;;;18.65;86.43;96946.63;29395;204;63005;-67
2023/09/09 02:17:21;;;;;;;0.40;0.40;;;;;;;18.65;86.50;96945.84;29395;312;63016;-67
2023/09/09 02:17:54;;;;;;;0.40;0.40;;;;;;;18.65;86.31;96948.59;29394;369;64009;-67
2023/09/09 02:18:25;;;;;;;0.40;0.40;;;;;;;18.66;86.68;96948.25;29395;214;63019;-69
2023/09/09 02:18:59;;;;;;;0.40;0.40;;;;;;;18.66;86.73;96945.50;29395;289;63004;-68
2023/09/09 02:19:34;;;;;;;0.40;0.40;;;;;;;18.67;86.67;96949.84;29395;289;63009;-66
2023/09/09 02:20:07;;;;;;;0.30;0.30;;;;;;;18.68;86.69;96945.94;29395;210;63004;-68
2023/09/09 02:20:40;;;;;;;0.40;0.40;;;;;;;18.68;86.74;96937.69;29395;204;63009;-66
2023/09/09 02:21:12;;;;;;;0.40;0.40;;;;;;;18.68;86.38;96942.41;29395;213;63005;-67
2023/09/09 02:21:46;;;;;;;0.40;0.40;;;;;;;18.67;86.79;96941.59;29394;234;64014;-67
2023/09/09 02:22:18;;;;;;;0.40;0.40;;;;;;;18.66;86.69;96951.00;29395;214;63005;-68
2023/09/09 02:22:50;;;;;;;0.40;0.40;;;;;;;18.65;86.54;96943.88;29395;246;63009;-68
2023/09/09 02:23:27;;;;;;;0.40;0.40;;;;;;;18.66;86.43;96941.94;29394;267;64009;-68
2023/09/09 02:24:02;;;;;;;0.40;0.40;;;;;;;18.64;86.97;96942.28;29395;302;63009;-67
2023/09/09 02:24:34;;;;;;;0.40;0.40;;;;;;;18.67;86.78;96947.09;29395;198;63005;-66
2023/09/09 02:25:09;;;;;;;0.40;0.40;;;;;;;18.67;86.62;96936.09;29394;199;64013;-68
2023/09/09 02:25:42;;;;;;;0.40;0.40;;;;;;;18.66;86.51;96940.00;29395;197;63004;-67
2023/09/09 02:26:14;;;;;;;0.40;0.40;;;;;;;18.67;86.77;96936.09;29395;237;63009;-69
2023/09/09 02:26:46;;;;;;;0.40;0.40;;;;;;;18.68;86.78;96937.69;29395;210;63004;-68
2023/09/09 02:27:18;;;;;;;0.40;0.40;;;;;;;18.69;86.61;96936.56;29395;295;63008;-69
2023/09/09 02:27:52;;;;;;;0.40;0.40;;;;;;;18.69;86.69;96938.50;29395;261;63004;-68
2023/09/09 02:28:25;;;;;;;0.30;0.30;;;;;;;18.69;86.91;96938.50;29395;249;63009;-51
2023/09/09 02:28:58;;;;;;;0.30;0.30;;;;;;;18.69;86.65;96946.75;29395;276;63005;-67
2023/09/09 02:29:30;;;;;;;0.40;0.40;;;;;;;18.66;86.95;96940.00;29395;286;63015;-51
2023/09/09 02:30:01;;;;;;;0.32;0.32;;;;;;;18.66;86.72;96934.50;29395;299;63005;-68
2023/09/09 02:30:34;;;;;;;0.40;0.40;;;;;;;18.67;86.63;96938.84;29394;216;64013;-67
2023/09/09 02:31:09;;;;;;;0.40;0.40;;;;;;;18.66;86.67;96936.44;29395;209;63000;-67
2023/09/09 02:31:42;;;;;;;0.40;0.40;;;;;;;18.66;86.96;96937.25;29395;291;63009;-68
2023/09/09 02:32:14;;;;;;;0.40;0.40;;;;;;;18.67;87.07;96940.78;29395;221;63005;-69
2023/09/09 02:32:46;;;;;;;0.40;0.40;;;;;;;18.67;86.70;96936.09;29395;267;63009;-67
2023/09/09 02:33:19;;;;;;;0.40;0.40;;;;;;;18.67;87.06;96936.09;29394;200;64009;-69
2023/09/09 02:33:51;;;;;;;0.40;0.40;;;;;;;18.67;87.09;96938.03;29395;254;63009;-67
2023/09/09 02:34:23;;;;;;;0.40;0.40;;;;;;;18.63;86.94;96929.69;29395;240;63004;-69
2023/09/09 02:34:57;;;;;;;0.40;0.40;;;;;;;18.66;87.17;96940.00;29395;211;63008;-68
2023/09/09 02:35:30;;;;;;;0.40;0.40;;;;;;;18.65;87.22;96938.38;29395;296;63005;-67
2023/09/09 02:36:02;;;;;;;0.40;0.40;;;;;;;18.63;87.12;96934.38;29394;313;64014;-67
2023/09/09 02:36:33;;;;;;;0.40;0.40;;;;;;;18.58;87.65;96931.81;29395;251;63005;-67
2023/09/09 02:37:20;;;;;;;0.40;0.40;;;;;;;18.60;87.41;96935.06;29395;313;63009;-51
2023/09/09 02:37:52;;;;;;;0.40;0.40;;;;;;;18.60;87.08;96946.84;29395;237;63005;-70
2023/09/09 02:38:24;;;;;;;0.40;0.40;;;;;;;18.61;87.56;96939.41;29395;236;63009;-69
2023/09/09 02:38:56;;;;;;;0.40;0.40;;;;;;;18.61;87.34;96937.47;29395;219;63010;-67
2023/09/09 02:39:27;;;;;;;0.40;0.40;;;;;;;18.61;87.68;96931.97;29395;215;63009;-66
2023/09/09 02:40:01;;;;;;;0.40;0.40;;;;;;;18.61;87.36;96937.47;29395;254;63004;-68
2023/09/09 02:40:33;;;;;;;0.40;0.40;;;;;;;18.61;87.29;96937.47;29394;202;64013;-67
2023/09/09 02:41:04;;;;;;;0.40;0.40;;;;;;;18.60;87.22;96935.88;29395;311;63004;-66
2023/09/09 02:41:36;;;;;;;0.40;0.40;;;;;;;18.60;87.12;96935.06;29396;311;63009;-67
2023/09/09 02:42:12;;;;;;;0.40;0.40;;;;;;;18.59;87.34;96939.72;29396;202;63010;-67
2023/09/09 02:42:43;;;;;;;0.40;0.40;;;;;;;18.59;87.45;96931.47;29396;301;63008;-67
2023/09/09 02:43:17;;;;;;;0.30;0.30;;;;;;;18.60;87.43;96935.06;29396;262;63009;-67
2023/09/09 02:43:50;;;;;;;0.30;0.30;;;;;;;18.59;87.70;96933.44;29396;316;63018;-68
2023/09/09 02:44:23;;;;;;;0.40;0.40;;;;;;;18.59;87.66;96934.22;29396;317;63000;-69
2023/09/09 02:44:54;;;;;;;0.40;0.40;;;;;;;18.58;87.69;96934.56;29396;270;63009;-70
2023/09/09 02:45:29;;;;;;;0.40;0.40;;;;;;;18.59;87.52;96933.44;29395;199;64009;-68
2023/09/09 02:46:02;;;;;;;0.40;0.40;;;;;;;18.60;87.74;96935.88;29395;278;64013;-68
2023/09/09 02:46:34;;;;;;;0.40;0.40;;;;;;;18.60;87.46;96935.88;29396;350;63004;-69
2023/09/09 02:47:07;;;;;;;0.40;0.40;;;;;;;18.61;87.86;96939.41;29396;243;63009;-69
2023/09/09 02:47:39;;;;;;;0.40;0.40;;;;;;;18.60;87.64;96927.63;29395;212;64009;-69
2023/09/09 02:48:12;;;;;;;0.40;0.40;;;;;;;18.61;87.81;96937.47;29396;251;63009;-68
2023/09/09 02:48:43;;;;;;;0.37;0.37;;;;;;;18.62;87.54;96932.78;29396;250;63000;-68
2023/09/09 02:49:15;;;;;;;0.40;0.40;;;;;;;18.61;87.25;96936.66;29396;213;63008;-68